Date,TemperatureHighF,TemperatureAvgF,TemperatureLowF,DewpointHighF,DewpointAvgF,DewpointLowF,HumidityHigh,HumidityAvg,HumidityLow,PressureMaxIn,PressureMinIn,WindSpeedMaxMPH,WindSpeedAvgMPH,GustSpeedMaxMPH,PrecipitationSumIn
2012-1-1,59.0,52.9,48.0,47.0,44.1,41.0,85,72,65,30.18,30.09,10,5,0,0.00
2012-1-2,58.0,51.7,49.0,52.0,48.4,45.0,95,89,79,30.30,30.15,4,2,0,0.00
2012-1-3,58.0,51.4,47.0,49.0,47.4,46.0,97,87,65,30.35,30.26,4,2,0,0.00
2012-1-4,60.0,53.3,48.0,46.0,45.1,44.0,92,75,55,30.38,30.27,6,3,0,0.00
2012-1-5,58.0,52.7,48.0,51.0,48.1,46.0,93,85,72,30.30,30.15,18,10,0,0.00
2012-1-6,52.0,48.2,44.0,46.0,45.2,43.0,96,89,80,30.19,30.11,6,1,0,0.00
2012-1-7,65.0,55.6,45.0,45.0,34.6,23.0,92,53,24,30.22,30.12,11,4,0,0.00
2012-1-8,63.0,58.1,54.0,31.0,27.2,24.0,37,31,26,30.22,30.16,7,3,0,0.00
2012-1-9,61.0,53.8,47.0,41.0,38.2,31.0,70,56,41,30.24,30.14,5,2,0,0.00
2012-1-10,62.0,52.8,47.0,44.0,40.8,38.0,80,65,43,30.16,30.07,4,1,0,0.00
2012-1-11,64.0,53.6,45.0,43.0,39.8,37.0,85,61,39,30.12,30.02,4,1,0,0.00
2012-1-12,63.0,56.7,49.0,40.0,33.6,30.0,69,43,30,30.10,30.03,6,3,0,0.00
2012-1-13,63.0,54.7,49.0,38.0,36.5,34.0,66,51,38,30.21,30.11,6,2,0,0.00
2012-1-14,63.0,52.3,45.0,46.0,40.3,36.0,92,66,40,30.18,30.08,6,3,0,0.00
2012-1-15,48.0,46.8,43.0,45.0,40.4,30.0,94,79,61,30.12,30.02,17,10,0,0.00
2012-1-16,49.0,43.6,40.0,34.0,28.4,25.0,68,56,40,30.29,30.14,11,4,0,0.00
2012-1-17,48.0,43.2,39.0,38.0,34.7,31.0,83,73,62,30.38,30.30,10,3,0,0.00
2012-1-18,52.0,45.2,41.0,44.0,39.6,37.0,92,81,66,30.39,30.27,5,2,0,0.00
2012-1-19,50.0,46.4,43.0,48.0,43.8,41.0,95,91,83,30.24,30.04,3,2,0,0.00
2012-1-20,57.0,52.9,48.0,56.0,51.9,47.0,97,96,96,30.03,29.73,13,5,0,0.00
2012-1-21,53.0,50.1,47.0,52.0,45.7,41.0,97,85,72,30.13,29.72,12,8,0,0.00
2012-1-22,52.0,47.6,44.0,50.0,44.5,40.0,94,89,82,30.15,29.85,8,4,0,0.00
2012-1-23,55.0,51.0,48.0,54.0,49.0,46.0,97,93,86,30.11,29.65,17,12,0,0.00
2012-1-24,55.0,49.6,46.0,50.0,46.2,44.0,96,88,77,30.40,30.14,9,2,0,0.00
2012-1-25,62.0,54.2,49.0,53.0,50.2,45.0,96,87,70,30.42,30.32,8,2,0,0.00
2012-1-26,55.0,52.3,50.0,54.0,51.3,49.0,98,97,96,30.34,30.24,15,5,0,0.00
2012-1-27,63.0,53.4,46.0,52.0,42.4,26.0,98,73,24,30.27,30.20,6,2,0,0.00
2012-1-28,63.0,54.9,50.0,40.0,31.9,26.0,65,43,27,30.32,30.22,11,5,0,0.00
2012-1-29,61.0,53.0,48.0,47.0,43.8,41.0,84,72,55,30.25,30.13,5,2,0,0.00
2012-1-30,57.0,51.1,48.0,49.0,46.7,43.0,96,85,69,30.12,30.02,5,3,0,0.00
2012-1-31,51.0,48.2,46.0,47.0,45.7,43.0,96,91,85,30.18,30.06,14,6,0,0.00
2012-2-1,57.0,50.2,45.0,50.0,46.7,42.0,96,88,76,30.24,30.19,6,2,0,0.00
2012-2-2,64.0,54.0,49.0,47.0,44.2,37.0,91,72,42,30.23,29.96,6,3,0,0.00
2012-2-3,59.0,52.8,48.0,46.0,42.1,34.0,90,69,46,30.04,29.98,10,3,0,0.00
2012-2-4,62.0,54.0,48.0,45.0,40.2,33.0,86,63,39,30.09,30.03,5,2,0,0.00
2012-2-5,62.0,55.4,50.0,42.0,38.2,34.0,71,54,39,30.10,29.98,6,3,0,0.00
2012-2-6,60.0,55.5,52.0,46.0,40.9,37.0,69,58,44,29.98,29.75,3,2,0,0.00
2012-2-7,54.0,52.3,50.0,49.0,47.6,45.0,92,84,73,30.07,29.73,11,4,0,0.00
2012-2-8,61.0,53.4,48.0,50.0,48.8,47.0,97,85,67,30.23,30.11,5,2,0,0.00
2012-2-9,65.0,56.7,51.0,50.0,48.4,47.0,91,75,55,30.25,30.16,6,3,0,0.00
2012-2-10,57.0,53.5,51.0,54.0,48.7,40.0,95,84,64,30.18,30.09,8,3,0,0.00
2012-2-11,52.0,50.1,48.0,49.0,48.0,45.0,96,93,89,30.07,30.00,16,9,0,0.00
2012-2-12,52.0,48.6,46.0,47.0,45.5,44.0,94,90,82,30.06,29.98,14,5,0,0.00
2012-2-13,52.0,46.5,45.0,47.0,44.0,43.0,96,91,81,29.99,29.91,3,1,0,0.00
2012-2-14,54.0,47.6,44.0,46.0,43.6,41.0,93,86,72,30.09,29.99,1,0,0,0.00
2012-2-15,54.0,47.9,40.0,47.0,34.1,25.0,95,63,34,30.14,30.05,9,3,0,0.00
2012-2-16,59.0,52.4,48.0,46.0,34.6,25.0,92,54,31,30.24,30.15,12,6,0,0.00
2012-2-17,54.0,49.7,47.0,50.0,47.8,45.0,97,93,85,30.25,30.18,20,10,0,0.00
2012-2-18,54.0,49.5,46.0,49.0,44.6,38.0,97,84,71,30.19,30.09,24,13,0,0.00
2012-2-19,49.0,46.1,42.0,43.0,38.8,36.0,85,76,61,30.14,30.06,12,4,0,0.00
2012-2-20,55.0,49.4,46.0,47.0,45.3,42.0,93,86,74,30.20,30.07,10,3,0,0.00
2012-2-21,59.0,50.8,47.0,51.0,48.1,46.0,97,91,74,30.28,30.20,5,2,0,0.00
2012-2-22,72.0,56.1,51.0,52.0,49.3,46.0,90,79,40,30.27,30.11,14,6,0,0.00
2012-2-23,65.0,56.5,50.0,48.0,44.7,28.0,92,68,25,30.09,29.96,10,3,0,0.00
2012-2-24,69.0,56.9,50.0,47.0,38.9,27.0,85,57,23,30.18,29.98,23,10,0,0.00
2012-2-25,54.0,48.7,47.0,45.0,37.9,32.0,85,67,52,30.31,30.19,14,6,0,0.00
2012-2-26,51.0,45.1,41.0,37.0,35.3,30.0,81,68,44,30.15,29.85,20,9,0,0.00
2012-2-27,49.0,45.6,41.0,38.0,36.4,35.0,82,70,64,29.92,29.80,15,10,0,0.00
2012-2-28,51.0,47.0,43.0,41.0,36.8,34.0,81,68,53,30.22,29.96,15,8,0,0.00
2012-2-29,51.0,48.1,46.0,47.0,43.9,41.0,96,86,79,30.23,30.10,11,7,0,0.00
2012-3-1,50.0,46.9,44.0,47.0,43.2,40.0,96,87,80,30.24,30.19,14,7,0,0.00
2012-3-2,59.0,50.9,45.0,40.0,34.0,29.0,80,54,32,30.34,30.24,10,3,0,0.00
2012-3-3,65.0,54.8,47.0,44.0,39.8,33.0,85,59,41,30.33,30.23,8,3,0,0.00
2012-3-4,69.0,57.3,50.0,47.0,44.0,40.0,84,63,44,30.23,30.06,7,2,0,0.00
2012-3-5,48.0,45.5,42.0,46.0,43.9,41.0,96,94,91,30.09,30.01,24,11,0,0.00
2012-3-6,50.0,47.1,45.0,46.0,37.0,25.0,96,70,41,30.03,29.95,22,15,0,0.00
2012-3-7,57.0,49.4,44.0,39.0,26.2,20.0,75,41,25,30.18,30.05,10,5,0,0.00
2012-3-8,66.0,54.3,46.0,45.0,35.9,27.0,73,53,29,30.30,30.18,4,2,0,0.00
2012-3-9,69.0,53.1,46.0,45.0,42.5,36.0,90,70,41,30.31,30.16,15,8,0,0.00
2012-3-10,51.0,47.7,45.0,47.0,44.8,43.0,93,89,85,30.14,29.99,15,8,0,0.00
2012-3-11,54.0,49.5,47.0,47.0,45.5,44.0,91,86,76,30.06,30.01,9,5,0,0.00
2012-3-12,55.0,48.5,44.0,45.0,43.7,42.0,94,84,66,30.03,29.93,8,3,0,0.00
2012-3-13,53.0,51.7,50.0,51.0,49.9,49.0,96,93,85,29.97,29.88,7,4,0,0.00
2012-3-14,55.0,54.1,53.0,54.0,52.9,51.0,96,95,93,30.10,29.94,8,5,0,0.00
2012-3-15,56.0,54.3,53.0,55.0,53.3,52.0,98,97,97,30.13,30.05,6,3,0,0.00
2012-3-16,55.0,53.1,48.0,54.0,51.8,46.0,97,96,91,30.05,29.74,9,6,0,0.00
2012-3-17,48.0,46.0,44.0,45.0,42.1,39.0,92,86,78,29.72,29.53,21,7,0,0.00
2012-3-18,49.0,45.5,43.0,39.0,36.6,34.0,83,71,60,29.91,29.64,20,14,0,0.00
2012-3-19,53.0,46.6,42.0,37.0,33.3,30.0,71,61,42,30.06,29.93,6,4,0,0.00
2012-3-20,57.0,52.2,48.0,48.0,42.2,35.0,86,69,58,30.18,30.08,8,3,0,0.00
2012-3-21,62.0,53.2,49.0,53.0,49.5,47.0,96,87,70,30.17,29.98,9,3,0,0.00
2012-3-22,52.0,49.2,47.0,51.0,44.6,40.0,97,84,66,30.01,29.94,16,9,0,0.00
2012-3-23,55.0,49.4,44.0,42.0,39.8,36.0,85,70,54,30.06,29.89,10,4,0,0.00
2012-3-24,52.0,45.8,42.0,44.0,40.6,32.0,96,84,46,29.89,29.81,12,4,0,0.00
2012-3-25,52.0,46.8,42.0,45.0,42.8,41.0,96,86,72,29.85,29.77,13,5,0,0.00
2012-3-26,57.0,49.7,44.0,43.0,41.3,40.0,87,74,54,30.07,29.89,7,4,0,0.00
2012-3-27,56.0,52.5,50.0,51.0,46.6,41.0,94,81,68,30.01,29.86,12,8,0,0.00
2012-3-28,58.0,53.9,50.0,53.0,51.7,49.0,96,92,82,30.11,29.93,8,5,0,0.00
2012-3-29,56.0,51.5,49.0,51.0,49.5,48.0,97,93,84,30.12,30.07,9,3,0,0.00
2012-3-30,60.0,55.7,52.0,54.0,52.6,51.0,96,89,80,30.10,29.92,9,4,0,0.00
2012-3-31,57.0,53.3,47.0,53.0,48.5,43.0,95,84,73,29.98,29.73,14,9,0,0.00
2012-4-1,52.0,49.1,46.0,45.0,40.9,38.0,91,74,63,30.27,30.02,16,11,0,0.00
2012-4-2,59.0,51.3,46.0,47.0,42.9,39.0,87,75,48,30.25,30.06,17,7,0,0.00
2012-4-3,58.0,51.8,48.0,50.0,47.4,46.0,95,85,66,30.09,30.01,17,9,0,0.00
2012-4-4,51.0,48.2,45.0,44.0,40.5,37.0,87,75,62,30.19,30.10,20,11,0,0.00
2012-4-5,49.0,45.9,43.0,39.0,36.2,34.0,75,69,61,30.15,30.10,20,12,0,0.00
2012-4-6,54.0,47.6,43.0,41.0,37.8,35.0,80,70,57,30.26,30.15,14,7,0,0.00
2012-4-7,59.0,50.8,44.0,44.0,39.2,34.0,84,66,47,30.15,30.02,9,4,0,0.00
2012-4-8,63.0,50.8,44.0,48.0,43.6,39.0,90,77,46,30.06,30.01,13,5,0,0.00
2012-4-9,65.0,53.8,47.0,46.0,44.6,41.0,92,73,46,30.00,29.82,17,4,0,0.00
2012-4-10,54.0,52.3,51.0,52.0,49.2,44.0,96,89,73,29.88,29.81,6,3,0,0.00
2012-4-11,57.0,52.8,50.0,51.0,48.7,47.0,97,87,74,29.96,29.80,10,6,0,0.00
2012-4-12,58.0,51.8,47.0,49.0,45.9,40.0,94,81,59,30.02,29.83,10,7,0,0.00
2012-4-13,51.0,48.7,46.0,47.0,43.6,41.0,95,83,72,29.85,29.70,20,11,0,0.00
2012-4-14,56.0,49.5,46.0,48.0,41.2,-99.9,91,78,65,30.11,29.86,18,10,0,0.00
2012-4-15,54.0,50.2,48.0,49.0,47.6,47.0,95,91,84,30.22,30.12,17,8,0,0.00
2012-4-16,54.0,51.1,49.0,49.0,47.7,46.0,94,89,81,30.23,30.18,18,11,0,0.00
2012-4-17,54.0,51.7,50.0,52.0,50.1,48.0,97,95,88,30.18,30.09,13,6,0,0.00
2012-4-18,57.0,52.7,49.0,52.0,48.9,46.0,96,87,77,30.16,30.10,19,11,0,0.00
2012-4-19,61.0,56.0,53.0,56.0,53.5,52.0,97,92,83,30.16,30.06,19,10,0,0.00
2012-4-20,76.0,63.4,53.0,60.0,55.1,49.0,96,76,55,30.08,29.96,8,2,0,0.00
2012-4-21,79.0,64.8,55.0,57.0,52.1,49.0,81,65,46,29.98,29.85,6,2,0,0.00
2012-4-22,57.0,53.1,51.0,51.0,50.5,48.0,97,91,81,29.91,29.86,16,8,0,0.00
2012-4-23,62.0,56.4,52.0,53.0,51.7,51.0,96,84,72,29.98,29.90,10,7,0,0.00
2012-4-24,63.0,58.6,56.0,55.0,52.7,52.0,88,81,72,30.03,29.96,10,5,0,0.00
2012-4-25,65.0,58.3,55.0,56.0,54.2,52.0,96,86,73,30.00,29.78,4,2,13,0.16
2012-4-26,55.0,53.3,51.0,54.0,48.9,44.0,96,85,70,30.17,29.77,16,10,0,0.00
2012-4-27,59.0,53.3,48.0,48.0,44.9,42.0,83,74,58,30.22,30.12,16,8,0,0.00
2012-4-28,61.0,53.1,50.0,52.0,46.3,-99.9,92,83,72,30.13,29.89,18,6,0,0.00
2012-4-29,61.0,53.3,49.0,52.0,49.8,47.0,94,88,72,29.92,29.88,13,7,0,0.00
2012-4-30,58.0,52.5,49.0,53.0,49.5,47.0,95,89,79,29.97,29.91,26,14,0,0.00
2012-5-1,53.0,50.3,47.0,49.0,45.8,44.0,95,85,74,29.92,29.87,23,14,0,0.00
2012-5-2,52.0,48.8,46.0,45.0,43.9,43.0,89,83,77,29.97,29.88,22,14,0,0.00
2012-5-3,58.0,53.6,49.0,53.0,50.0,45.0,94,88,82,30.07,29.96,10,6,0,0.00
2012-5-4,55.0,51.5,48.0,51.0,46.2,44.0,95,82,71,30.19,30.08,21,12,0,0.00
2012-5-5,66.0,55.4,48.0,47.0,44.6,41.0,86,69,43,30.19,30.06,17,6,0,0.00
2012-5-6,74.0,61.2,49.0,48.0,44.1,37.0,87,58,26,30.06,30.00,10,2,0,0.00
2012-5-7,76.0,61.6,50.0,54.0,47.4,40.0,92,64,34,30.02,29.94,17,5,0,0.00
2012-5-8,66.0,55.2,47.0,53.0,49.4,46.0,95,82,59,29.96,29.91,12,6,0,0.00
2012-5-9,57.0,51.5,49.0,50.0,47.7,46.0,92,87,77,29.96,29.88,17,9,0,0.00
2012-5-10,69.0,56.1,47.0,52.0,46.6,42.0,92,73,40,29.91,29.85,18,6,0,0.00
2012-5-11,72.0,56.5,49.0,52.0,48.1,45.0,90,75,48,29.95,29.86,14,5,0,0.00
2012-5-12,54.0,49.9,46.0,51.0,45.6,-99.9,96,92,85,30.05,29.97,14,7,0,0.00
2012-5-13,58.0,52.9,48.0,51.0,48.7,47.0,96,86,75,30.07,30.02,11,8,0,0.00
2012-5-14,60.0,55.9,52.0,52.0,50.4,48.0,90,82,73,30.08,30.02,15,6,0,0.00
2012-5-15,53.0,50.3,48.0,49.0,48.2,47.0,96,92,85,30.05,29.99,17,12,0,0.00
2012-5-16,52.0,49.7,48.0,50.0,48.3,47.0,97,95,91,30.03,29.93,17,8,0,0.00
2012-5-17,53.0,50.3,49.0,48.0,47.6,46.0,97,90,82,29.94,29.84,26,15,0,0.00
2012-5-18,56.0,51.2,47.0,49.0,46.5,44.0,92,84,75,29.98,29.88,19,9,0,0.00
2012-5-19,58.0,51.1,47.0,49.0,44.2,-99.9,91,82,73,29.99,29.93,13,7,0,0.00
2012-5-20,59.0,53.4,49.0,51.0,48.1,45.0,94,83,72,29.99,29.92,26,10,0,0.00
2012-5-21,54.0,51.2,49.0,52.0,50.0,48.0,97,96,94,30.09,30.00,20,13,0,0.00
2012-5-22,56.0,53.4,50.0,52.0,50.3,48.0,97,89,74,30.13,30.04,21,16,0,0.00
2012-5-23,58.0,54.3,51.0,50.0,48.1,46.0,90,80,69,30.04,29.91,24,16,0,0.00
2012-5-24,56.0,53.2,49.0,50.0,46.8,44.0,86,79,72,29.91,29.72,23,16,0,0.00
2012-5-25,55.0,50.3,47.0,48.0,45.6,44.0,90,84,74,29.80,29.73,20,14,0,0.00
2012-5-26,54.0,50.6,47.0,49.0,47.3,45.0,94,89,83,30.06,29.82,18,9,0,0.00
2012-5-27,54.0,50.9,49.0,49.0,47.6,47.0,93,89,80,30.15,30.06,18,12,0,0.00
2012-5-28,55.0,51.6,49.0,50.0,48.6,46.0,96,90,81,30.07,30.00,21,14,0,0.00
2012-5-29,56.0,51.2,49.0,50.0,47.7,46.0,92,88,81,30.06,30.01,20,11,0,0.00
2012-5-30,57.0,51.7,49.0,51.0,48.6,47.0,95,89,80,30.09,30.02,22,9,0,0.00
2012-5-31,65.0,56.0,49.0,53.0,50.1,47.0,93,82,63,30.04,29.85,15,7,0,0.00
2012-6-1,60.0,53.6,50.0,54.0,51.2,49.0,96,91,80,29.85,29.78,18,10,0,0.00
2012-6-2,54.0,51.1,50.0,53.0,48.6,-99.9,97,96,93,29.94,29.83,28,19,0,0.00
2012-6-3,57.0,52.2,49.0,52.0,49.9,48.0,97,92,82,29.95,29.90,21,14,0,0.00
2012-6-4,56.0,53.7,51.0,55.0,51.5,48.0,97,93,85,30.09,29.90,10,7,0,0.00
2012-6-5,56.0,52.7,49.0,48.0,46.6,45.0,93,80,69,30.17,30.10,19,12,0,0.00
2012-6-6,58.0,52.7,47.0,47.0,46.2,44.0,91,79,66,30.11,29.96,24,10,0,0.00
2012-6-7,57.0,52.6,49.0,53.0,49.7,46.0,96,90,83,30.03,29.96,24,15,0,0.00
2012-6-8,58.0,53.4,48.0,50.0,47.1,45.0,94,80,66,29.99,29.91,22,14,0,0.00
2012-6-9,65.0,57.1,49.0,49.0,45.1,41.0,82,66,49,29.99,29.87,19,7,0,0.00
2012-6-10,81.0,68.4,57.0,48.0,40.5,36.0,72,39,24,29.90,29.86,17,8,0,0.00
2012-6-11,71.0,61.9,52.0,53.0,48.1,41.0,87,63,42,29.96,29.88,16,7,0,0.00
2012-6-12,64.0,54.5,50.0,55.0,50.4,47.0,95,87,69,29.97,29.91,28,14,0,0.00
2012-6-13,56.0,51.7,49.0,51.0,49.0,48.0,97,90,82,29.91,29.76,24,11,0,0.00
2012-6-14,57.0,52.8,49.0,50.0,48.2,46.0,93,85,76,29.82,29.76,24,10,0,0.00
2012-6-15,60.0,54.0,48.0,51.0,48.3,45.0,91,81,71,29.82,29.76,14,6,0,0.00
2012-6-16,78.0,60.9,52.0,55.0,48.7,-99.9,89,71,45,29.84,29.77,8,3,0,0.00
2012-6-17,64.0,55.4,52.0,55.0,51.7,51.0,96,87,73,29.87,29.78,16,6,0,0.00
2012-6-18,54.0,51.9,49.0,51.0,49.9,48.0,99,93,86,29.91,29.82,15,10,0,0.00
2012-6-19,60.0,54.5,50.0,52.0,49.6,48.0,92,84,74,29.91,29.83,10,7,0,0.00
2012-6-20,71.0,57.8,52.0,56.0,51.2,49.0,92,79,60,29.83,29.80,15,8,0,0.00
2012-6-21,55.0,52.0,49.0,51.0,49.4,47.0,95,90,86,29.96,29.82,15,10,0,0.00
2012-6-22,58.0,53.7,50.0,53.0,50.2,46.0,95,88,79,29.96,29.87,10,6,0,0.00
2012-6-23,59.0,54.7,51.0,51.0,49.7,48.0,95,83,69,29.93,29.84,17,9,0,0.00
2012-6-24,59.0,55.5,52.0,51.0,49.5,48.0,90,81,68,30.04,29.93,17,8,0,0.00
2012-6-25,62.0,57.0,53.0,53.0,52.0,51.0,93,84,70,30.09,30.02,11,6,0,0.00
2012-6-26,62.0,57.8,52.0,53.0,51.1,49.0,92,79,69,30.05,29.89,20,9,0,0.00
2012-6-27,60.0,55.6,52.0,53.0,51.8,50.0,94,87,77,29.93,29.87,23,10,0,0.00
2012-6-28,59.0,54.8,53.0,55.0,52.4,51.0,96,91,85,30.06,29.94,24,13,0,0.00
2012-6-29,60.0,56.4,53.0,57.0,54.6,52.0,97,94,88,30.10,30.01,20,11,0,0.00
2012-6-30,62.0,58.6,55.0,59.0,57.1,54.0,97,95,88,30.01,29.94,19,10,0,0.00
2012-7-1,59.0,56.9,55.0,58.0,55.9,54.0,98,97,97,29.97,29.88,19,7,0,0.00
2012-7-2,58.0,55.2,53.0,54.0,53.0,51.0,97,92,86,29.89,29.84,25,13,0,0.00
2012-7-3,60.0,54.7,51.0,53.0,50.7,49.0,94,87,79,29.91,29.82,18,10,0,0.00
2012-7-4,63.0,55.2,52.0,55.0,51.6,50.0,95,88,75,29.86,29.81,14,9,0,0.00
2012-7-5,58.0,54.2,51.0,53.0,50.8,49.0,93,89,81,29.98,29.89,19,11,0,0.00
2012-7-6,60.0,54.2,51.0,54.0,51.4,50.0,96,90,81,30.02,29.96,11,8,0,0.00
2012-7-7,59.0,53.7,51.0,54.0,51.4,50.0,96,92,83,29.99,29.93,14,8,0,0.00
2012-7-8,56.0,52.1,50.0,53.0,50.9,49.0,97,96,91,30.03,29.97,23,10,0,0.00
2012-7-9,56.0,52.6,51.0,53.0,51.2,50.0,97,95,89,30.04,29.96,17,11,0,0.00
2012-7-10,61.0,53.2,49.0,55.0,50.7,48.0,97,92,80,29.96,29.84,12,8,0,0.00
2012-7-11,67.0,52.9,49.0,56.0,50.5,48.0,97,92,68,29.88,29.81,15,9,0,0.00
2012-7-12,55.0,51.7,49.0,51.0,49.9,48.0,97,94,87,29.85,29.81,14,10,0,0.00
2012-7-13,54.0,52.2,50.0,52.0,50.5,49.0,97,94,90,29.92,29.84,18,10,0,0.00
2012-7-14,59.0,53.1,51.0,54.0,51.2,50.0,97,94,83,29.94,29.87,15,8,0,0.00
2012-7-15,58.0,54.4,51.0,57.0,52.6,50.0,97,94,85,29.91,29.83,16,8,0,0.00
2012-7-16,59.0,53.9,52.0,54.0,52.0,51.0,97,94,80,29.91,29.81,10,8,0,0.00
2012-7-17,61.0,56.3,53.0,56.0,53.6,52.0,97,91,79,29.98,29.90,13,5,0,0.00
2012-7-18,61.0,56.8,54.0,54.0,52.4,51.0,95,86,73,30.01,29.96,17,7,0,0.00
2012-7-19,62.0,57.5,53.0,56.0,54.4,52.0,97,90,77,30.03,29.96,19,9,0,0.00
2012-7-20,63.0,57.4,54.0,56.0,54.3,53.0,96,90,78,30.08,29.97,20,8,0,0.00
2012-7-21,72.0,59.7,52.0,59.0,54.4,51.0,95,84,62,29.99,29.87,19,8,0,0.00
2012-7-22,58.0,54.5,52.0,54.0,52.1,51.0,97,92,85,29.92,29.85,16,10,0,0.00
2012-7-23,63.0,56.6,53.0,55.0,52.8,51.0,94,88,76,29.92,29.88,17,10,0,0.00
2012-7-24,63.0,57.3,54.0,55.0,53.4,52.0,93,87,75,29.96,29.91,10,7,0,0.00
2012-7-25,60.0,56.6,55.0,55.0,53.3,52.0,94,90,82,30.00,29.93,11,7,0,0.00
2012-7-26,59.0,54.9,53.0,54.0,52.2,51.0,95,90,81,29.99,29.94,11,8,0,0.00
2012-7-27,59.0,54.0,52.0,54.0,52.1,51.0,97,93,84,30.02,29.96,16,8,0,0.00
2012-7-28,59.0,54.3,52.0,55.0,52.6,51.0,97,94,86,30.05,29.99,29,12,0,0.00
2012-7-29,58.0,54.0,52.0,54.0,52.3,51.0,97,95,88,30.03,29.96,14,9,0,0.00
2012-7-30,64.0,57.2,52.0,59.0,53.5,51.0,97,89,76,29.97,29.88,13,6,0,0.00
2012-7-31,57.0,54.2,52.0,54.0,52.0,51.0,95,92,88,29.99,29.92,14,9,0,0.00
2012-8-1,58.0,54.1,52.0,54.0,51.9,51.0,96,93,86,30.05,29.97,11,9,0,0.00
2012-8-2,58.0,53.3,51.0,54.0,51.5,50.0,97,94,86,29.99,29.90,12,8,0,0.00
2012-8-3,57.0,52.8,51.0,53.0,51.3,50.0,97,95,87,29.90,29.82,17,10,0,0.00
2012-8-4,58.0,54.0,50.0,56.0,52.8,49.0,97,96,92,29.94,29.84,11,6,0,0.00
2012-8-5,60.0,56.9,55.0,56.0,54.7,52.0,98,93,83,30.07,29.96,15,7,0,0.00
2012-8-6,63.0,57.5,54.0,56.0,53.8,52.0,93,88,78,30.11,30.02,18,8,0,0.00
2012-8-7,61.0,56.3,53.0,55.0,53.5,52.0,95,90,80,30.06,29.97,24,11,0,0.00
2012-8-8,62.0,55.7,52.0,55.0,52.5,51.0,95,89,77,30.01,29.91,11,8,0,0.00
2012-8-9,63.0,55.5,52.0,55.0,52.5,51.0,97,90,74,29.94,29.83,15,9,0,0.00
2012-8-10,55.0,52.9,51.0,52.0,51.2,50.0,97,94,90,29.85,29.76,14,10,0,0.00
2012-8-11,63.0,52.9,51.0,56.0,48.8,-99.9,97,93,78,29.81,29.75,12,7,0,0.00
2012-8-12,57.0,52.6,50.0,53.0,50.9,49.0,97,95,86,29.86,29.79,12,8,0,0.00
2012-8-13,59.0,53.5,50.0,54.0,51.3,49.0,98,93,83,29.85,29.78,13,9,0,0.00
2012-8-14,58.0,54.4,52.0,56.0,53.1,51.0,97,96,93,29.83,29.78,15,9,0,0.00
2012-8-15,59.0,55.8,54.0,55.0,53.6,53.0,97,93,86,29.88,29.80,10,6,0,0.00
2012-8-16,60.0,56.0,53.0,56.0,54.0,52.0,97,93,87,29.96,29.88,15,7,0,0.00
2012-8-17,57.0,54.6,53.0,55.0,53.3,52.0,98,96,92,29.99,29.91,18,10,0,0.00
2012-8-18,57.0,54.5,52.0,54.0,53.0,51.0,97,94,90,29.97,29.90,26,12,0,0.00
2012-8-19,56.0,52.8,51.0,54.0,51.6,50.0,98,96,93,29.97,29.89,22,8,0,0.00
2012-8-20,55.0,51.9,50.0,53.0,50.8,49.0,98,96,93,29.94,29.86,15,7,0,0.00
2012-8-21,54.0,52.6,51.0,54.0,52.2,51.0,100,99,96,29.93,29.85,23,11,0,0.00
2012-8-22,57.0,53.2,51.0,55.0,52.4,50.0,100,98,93,29.94,29.87,10,7,0,0.00
2012-8-23,56.0,53.1,50.0,54.0,52.4,49.0,100,97,92,29.94,29.85,12,7,0,0.00
2012-8-24,64.0,55.6,52.0,57.0,52.7,51.0,97,90,79,29.90,29.83,16,8,0,0.00
2012-8-25,54.0,52.9,51.0,52.0,51.3,50.0,97,95,90,29.87,29.81,14,8,0,0.00
2012-8-26,61.0,56.7,54.0,54.0,52.5,51.0,93,86,75,29.99,29.85,17,11,0,0.00
2012-8-27,65.0,59.3,55.0,59.0,56.0,53.0,96,89,80,30.04,29.94,17,7,0,0.00
2012-8-28,68.0,59.3,54.0,57.0,53.4,52.0,93,82,66,30.02,29.93,21,9,0,0.00
2012-8-29,77.0,60.9,52.0,59.0,53.3,51.0,97,79,51,29.94,29.79,9,5,0,0.00
2012-8-30,56.0,53.5,52.0,53.0,52.2,51.0,97,95,91,29.83,29.76,15,9,0,0.00
2012-8-31,59.0,54.8,53.0,54.0,52.4,52.0,96,92,83,29.94,29.85,12,8,0,0.00
2012-9-1,58.0,54.2,51.0,53.0,51.3,50.0,96,90,82,30.03,29.96,17,8,0,0.00
2012-9-2,66.0,54.6,50.0,56.0,52.0,49.0,97,91,70,29.98,29.90,14,4,0,0.00
2012-9-3,67.0,55.5,50.0,56.0,51.9,48.0,96,89,68,29.97,29.90,14,6,0,0.00
2012-9-4,56.0,52.3,50.0,54.0,51.0,49.0,97,96,91,30.01,29.96,10,8,0,0.00
2012-9-5,58.0,54.3,51.0,55.0,52.4,50.0,97,94,87,29.98,29.92,9,5,0,0.00
2012-9-6,59.0,55.6,53.0,53.0,51.8,50.0,94,87,79,30.00,29.94,16,6,0,0.00
2012-9-7,62.0,56.1,52.0,53.0,51.3,49.0,91,84,73,30.08,30.00,13,6,0,0.00
2012-9-8,57.0,54.8,53.0,53.0,51.6,50.0,92,89,83,30.06,29.95,18,11,0,0.00
2012-9-9,61.0,55.9,53.0,55.0,52.5,51.0,93,88,81,29.99,29.89,20,10,0,0.00
2012-9-10,66.0,56.8,52.0,56.0,53.1,51.0,96,88,71,29.92,29.82,13,6,0,0.00
2012-9-11,60.0,55.5,53.0,55.0,52.8,51.0,96,91,83,29.95,29.83,14,8,0,0.00
2012-9-12,59.0,54.5,52.0,56.0,52.9,51.0,97,95,89,30.06,29.95,10,6,0,0.00
2012-9-13,60.0,54.3,52.0,56.0,52.4,51.0,98,94,82,30.09,30.02,9,5,0,0.00
2012-9-14,58.0,54.2,52.0,54.0,52.2,51.0,97,93,86,30.10,30.01,13,8,0,0.00
2012-9-15,57.0,52.8,50.0,53.0,50.9,49.0,96,93,85,30.10,29.99,12,8,0,0.00
2012-9-16,56.0,51.9,50.0,52.0,50.0,49.0,97,94,86,30.04,29.97,18,8,0,0.00
2012-9-17,57.0,54.3,52.0,52.0,51.1,50.0,94,89,82,30.05,29.99,10,6,0,0.00
2012-9-18,59.0,54.1,51.0,53.0,50.5,48.0,92,88,80,30.10,30.02,19,11,0,0.00
2012-9-19,59.0,55.2,53.0,53.0,51.7,50.0,92,88,81,30.09,30.01,26,16,0,0.00
2012-9-20,58.0,54.2,51.0,52.0,50.8,49.0,93,88,80,30.07,29.98,19,10,0,0.00
2012-9-21,60.0,54.5,51.0,53.0,50.9,49.0,95,88,75,29.99,29.89,8,6,0,0.00
2012-9-22,63.0,54.3,51.0,55.0,49.0,-99.9,95,87,70,29.93,29.88,12,7,0,0.00
2012-9-23,65.0,52.6,48.0,56.0,50.4,47.0,96,92,73,29.95,29.88,16,5,0,0.00
2012-9-24,61.0,54.4,51.0,55.0,52.2,50.0,97,93,82,29.96,29.87,13,7,0,0.00
2012-9-25,57.0,52.6,50.0,54.0,51.3,49.0,97,96,91,29.92,29.85,12,6,0,0.00
2012-9-26,55.0,51.9,50.0,52.0,50.5,49.0,96,94,90,29.89,29.84,13,7,0,0.00
2012-9-27,62.0,52.8,50.0,57.0,51.1,49.0,98,95,79,29.92,29.84,8,5,0,0.00
2012-9-28,54.0,52.1,49.0,53.0,51.6,49.0,100,98,95,29.96,29.86,11,6,0,0.00
2012-9-29,62.0,54.0,51.0,56.0,52.1,49.0,98,94,80,30.03,29.95,11,4,0,0.00
2012-9-30,83.0,60.3,49.0,61.0,51.8,48.0,97,79,38,30.05,29.96,4,1,0,0.00
2012-10-1,89.0,77.5,59.0,54.0,45.2,36.0,71,36,16,30.00,29.88,12,4,0,0.00
2012-10-2,92.0,85.9,74.0,53.0,44.9,39.0,33,24,20,29.88,29.78,6,3,0,0.00
2012-10-3,82.0,63.1,57.0,58.0,55.1,45.0,94,77,27,29.96,29.80,17,9,0,0.00
2012-10-4,62.0,58.0,56.0,55.0,54.3,53.0,93,88,78,30.12,29.98,11,7,0,0.00
2012-10-5,64.0,59.2,56.0,56.0,55.0,53.0,94,87,76,30.14,30.06,8,5,0,0.00
2012-10-6,65.0,58.8,54.0,55.0,52.7,50.0,95,81,61,30.06,29.97,15,6,0,0.00
2012-10-7,59.0,55.8,53.0,54.0,53.1,51.0,94,91,85,30.01,29.94,16,8,0,0.00
2012-10-8,62.0,57.1,53.0,55.0,53.8,51.0,95,89,79,30.03,29.99,10,6,0,0.00
2012-10-9,64.0,58.4,56.0,56.0,54.4,53.0,93,87,74,30.02,29.93,14,3,0,0.00
2012-10-10,58.0,55.5,54.0,54.0,52.5,51.0,94,90,85,29.95,29.88,15,7,0,0.00
2012-10-11,55.0,53.7,53.0,52.0,51.2,50.0,95,91,88,29.96,29.89,8,5,0,0.00
2012-10-12,59.0,55.2,53.0,52.0,51.3,50.0,94,87,78,30.20,29.95,8,4,0,0.00
2012-10-13,69.0,58.3,53.0,56.0,52.8,51.0,93,83,57,30.29,30.17,15,5,0,0.00
2012-10-14,66.0,57.6,54.0,60.0,55.7,53.0,97,93,80,30.20,30.07,16,5,0,0.00
2012-10-15,69.0,59.7,54.0,61.0,56.9,53.0,97,91,72,30.08,29.96,10,4,0,0.00
2012-10-16,66.0,61.2,57.0,63.0,58.5,54.0,97,91,83,29.99,29.87,21,7,0,0.00
2012-10-17,79.0,68.7,61.0,58.0,51.0,36.0,88,60,26,29.91,29.81,8,2,0,0.00
2012-10-18,81.0,74.5,67.0,52.0,48.3,39.0,48,40,30,29.96,29.86,7,4,0,0.00
2012-10-19,61.0,59.2,55.0,60.0,58.2,54.0,97,96,95,30.03,29.92,8,6,0,0.00
2012-10-20,58.0,54.7,53.0,54.0,52.5,49.0,97,93,80,29.92,29.80,23,13,0,0.00
2012-10-21,57.0,53.1,50.0,51.0,47.8,45.0,88,82,71,29.92,29.83,15,6,0,0.00
2012-10-22,59.0,54.6,52.0,53.0,50.8,49.0,95,87,74,29.90,29.71,10,6,0,0.00
2012-10-23,59.0,54.2,50.0,51.0,48.3,43.0,94,82,58,30.04,29.91,9,3,0,0.00
2012-10-24,60.0,55.8,51.0,54.0,50.3,48.0,94,83,70,30.18,30.01,7,3,0,0.00
2012-10-25,62.0,55.7,52.0,53.0,50.7,47.0,95,84,66,30.24,30.17,10,5,0,0.00
2012-10-26,67.0,59.5,53.0,55.0,47.4,39.0,93,66,37,30.22,30.10,7,3,0,0.00
2012-10-27,74.0,62.6,56.0,59.0,55.6,53.0,93,79,56,30.08,29.95,5,1,0,0.00
2012-10-28,73.0,61.8,55.0,59.0,56.3,54.0,96,83,62,30.00,29.95,5,2,0,0.00
2012-10-29,64.0,55.9,52.0,58.0,54.0,51.0,97,94,81,30.10,30.02,6,4,0,0.00
2012-10-30,59.0,54.8,52.0,56.0,53.5,51.0,97,96,91,30.07,29.96,8,5,0,0.00
2012-10-31,61.0,57.4,55.0,57.0,55.1,54.0,97,92,80,30.01,29.96,4,2,0,0.00
2012-11-1,60.0,57.0,54.0,58.0,55.8,51.0,100,96,85,30.03,29.98,9,4,0,0.00
2012-11-2,63.0,55.6,51.0,53.0,50.3,47.0,94,83,67,30.08,30.02,10,4,0,0.00
2012-11-3,70.0,59.8,54.0,55.0,53.0,48.0,96,80,57,30.12,30.05,7,2,0,0.00
2012-11-4,76.0,65.5,58.0,57.0,54.9,53.0,88,70,47,30.19,30.12,7,1,0,0.00
2012-11-5,77.0,68.4,60.0,57.0,55.9,55.0,85,66,51,30.14,30.03,8,3,0,0.00
2012-11-6,78.0,67.4,58.0,58.0,55.8,54.0,88,67,49,30.06,29.99,3,1,0,0.00
2012-11-7,55.0,53.8,53.0,54.0,52.3,51.0,97,95,88,30.04,29.93,21,9,0,0.00
2012-11-8,57.0,52.4,48.0,49.0,45.4,42.0,87,77,68,29.95,29.88,16,8,0,0.00
2012-11-9,53.0,48.4,44.0,44.0,41.6,40.0,89,78,64,29.97,29.88,11,5,0,0.00
2012-11-10,54.0,50.1,47.0,44.0,42.3,41.0,81,75,64,30.20,29.97,13,7,0,0.00
2012-11-11,56.0,50.8,46.0,44.0,41.7,39.0,87,72,53,30.35,30.23,4,2,0,0.00
2012-11-12,58.0,52.5,47.0,43.0,41.0,37.0,83,66,46,30.35,30.24,4,4,0,0.00
2012-11-13,63.0,57.1,50.0,45.0,42.4,40.0,75,59,45,30.25,30.07,7,4,0,0.00
2012-11-14,66.0,58.9,53.0,49.0,46.7,44.0,74,64,51,30.10,30.00,8,4,0,0.00
2012-11-15,64.0,58.2,54.0,50.0,47.9,45.0,86,69,53,30.01,29.95,10,3,0,0.00
2012-11-16,61.0,56.2,53.0,56.0,52.7,48.0,95,88,73,29.98,29.86,4,2,0,0.00
2012-11-17,59.0,57.5,56.0,57.0,55.8,55.0,96,94,89,29.93,29.79,7,5,0,0.00
2012-11-18,58.0,54.7,51.0,51.0,47.7,44.0,92,78,62,30.15,30.00,11,3,0,0.00
2012-11-19,64.0,57.5,53.0,52.0,48.1,43.0,81,72,57,30.21,30.15,5,2,0,0.00
2012-11-20,62.0,59.4,57.0,57.0,55.7,53.0,94,88,82,30.15,30.02,8,5,0,0.00
2012-11-21,59.0,56.6,51.0,57.0,53.3,46.0,96,89,75,30.18,30.03,12,6,0,0.00
2012-11-22,62.0,54.2,49.0,49.0,47.5,46.0,89,78,57,30.24,30.17,5,2,0,0.00
2012-11-23,64.0,56.6,51.0,50.0,48.7,47.0,88,76,55,30.24,30.15,8,3,0,0.00
2012-11-24,65.0,56.6,52.0,52.0,49.7,47.0,95,79,54,30.17,30.03,6,3,0,0.00
2012-11-25,60.0,54.1,52.0,54.0,51.9,50.0,97,92,80,30.03,29.92,4,2,0,0.00
2012-11-26,55.0,51.9,49.0,54.0,50.3,48.0,97,94,89,30.05,29.96,8,3,0,0.00
2012-11-27,59.0,55.1,51.0,52.0,50.4,50.0,95,84,71,30.10,30.00,5,2,0,0.00
2012-11-28,61.0,57.0,54.0,57.0,53.0,50.0,95,87,80,30.03,29.81,14,6,0,0.00
2012-11-29,61.0,58.4,56.0,58.0,54.1,51.0,92,86,81,30.03,29.87,12,7,0,0.00
2012-11-30,60.0,58.8,57.0,58.0,56.9,54.0,95,93,90,29.99,29.79,11,8,0,0.00
2012-12-1,61.0,58.2,56.0,59.0,56.3,54.0,96,93,86,30.02,29.88,10,6,0,0.00
2012-12-2,61.0,56.9,52.0,59.0,54.0,47.0,96,89,75,30.07,29.74,15,9,0,0.00
2012-12-3,58.0,52.4,49.0,50.0,48.0,45.0,95,86,61,30.18,30.08,4,1,0,0.00
2012-12-4,59.0,56.0,53.0,54.0,51.6,50.0,93,85,72,30.21,30.14,4,2,0,0.00
2012-12-5,60.0,58.6,57.0,59.0,57.5,56.0,97,96,94,30.15,30.07,6,2,0,0.00
2012-12-6,57.0,53.0,51.0,56.0,47.6,-99.9,96,85,75,30.11,30.06,11,5,0,0.00
2012-12-7,60.0,52.4,48.0,52.0,48.0,46.0,94,86,73,30.13,30.06,4,2,0,0.00
2012-12-8,57.0,51.4,47.0,48.0,45.2,39.0,95,80,51,30.09,30.02,6,3,0,0.00
2012-12-9,65.0,56.8,51.0,49.0,45.4,43.0,90,67,44,30.16,30.08,3,1,0,0.00
2012-12-10,64.0,58.7,54.0,48.0,45.5,43.0,73,62,51,30.21,30.10,5,2,0,0.00
2012-12-11,57.0,51.8,49.0,50.0,48.1,46.0,96,87,68,30.09,29.87,8,4,0,0.00
2012-12-12,52.0,49.4,47.0,49.0,44.0,41.0,95,82,73,29.88,29.82,9,6,0,0.00
2012-12-13,51.0,46.9,44.0,41.0,39.8,38.0,90,77,61,29.90,29.84,6,4,0,0.00
2012-12-14,50.0,47.1,45.0,45.0,42.3,40.0,89,83,77,29.98,29.80,3,1,0,0.00
2012-12-15,47.0,45.2,43.0,44.0,42.7,41.0,94,91,86,30.06,29.97,12,4,0,0.00
2012-12-16,54.0,49.6,47.0,52.0,45.9,42.0,94,87,83,30.08,30.01,6,4,0,0.00
2012-12-17,55.0,53.0,49.0,54.0,50.3,43.0,96,90,79,30.05,29.96,13,6,0,0.00
2012-12-18,49.0,46.5,44.0,40.0,33.7,29.0,75,61,54,30.15,29.98,12,8,0,0.00
2012-12-19,49.0,44.8,41.0,37.0,30.0,23.0,75,57,38,30.29,30.17,5,2,0,0.00
2012-12-20,58.0,49.4,44.0,43.0,37.5,31.0,72,64,57,30.19,29.98,8,4,0,0.00
2012-12-21,54.0,52.5,50.0,51.0,47.9,45.0,93,84,75,29.97,29.86,11,7,0,0.00
2012-12-22,55.0,51.9,48.0,51.0,48.5,46.0,94,89,78,30.03,29.82,11,6,0,0.00
2012-12-23,55.0,52.3,50.0,54.0,50.1,47.0,95,92,85,30.05,29.84,12,7,0,0.00
2012-12-24,53.0,49.9,47.0,47.0,43.8,41.0,89,80,67,30.20,30.01,8,3,0,0.00
2012-12-25,51.0,46.4,45.0,50.0,43.5,40.0,95,89,79,30.14,29.79,7,2,0,0.00
2012-12-26,51.0,49.3,47.0,47.0,44.8,42.0,91,84,79,30.07,29.85,16,10,0,0.00
2012-12-27,52.0,48.5,46.0,43.0,41.0,39.0,86,75,63,30.15,30.09,12,3,0,0.00
2012-12-28,48.0,45.5,43.0,44.0,40.8,37.0,93,84,68,30.16,30.02,7,2,0,0.00
2012-12-29,50.0,46.0,42.0,43.0,40.8,39.0,94,82,70,30.06,30.00,9,4,0,0.00
2012-12-30,51.0,47.1,42.0,43.0,40.7,33.0,95,79,52,30.14,30.03,6,2,0,0.00
2012-12-31,50.0,46.9,43.0,41.0,35.0,31.0,81,64,50,30.27,30.16,5,2,0,0.00
2013-1-1,50.0,46.1,42.0,41.0,37.8,34.0,86,74,57,30.24,30.19,9,4,0,0.00